Pedrinhas, Brazil
Current Conditions -  °F | °C
As of 2:00 AM on Saturday 22 Nov 2014 (Local Time) from SBAR Reporting Station
Scattered Clouds Scattered Clouds  
Wind Chill: 75°   Ceiling: Unl
Heat Index: 75°   Visibility: 6mi
Dew Point: 73°   Wind: 3mph
Humidity: 94%   Direction: 40°NE
Pressure: 29.91"   Gusts: NA
Location:  11.19°S, 37.67°W
Report Text: SBAR 220500Z 04003KT 9999 SCT015 SCT070 24/23 Q1013
Loading
Personal Weather Stations






























Interactive Weather Map New forecast layout! Learn more

10-Day Weather Forecast

Advertisements
Track Severe Weather on mobile